createdAt,value
2022-10-28T00:01:21.198Z,101086.05
2022-10-28T00:06:33.207Z,101083.77
2022-10-28T00:11:36.109Z,101076.85
2022-10-28T00:16:39.122Z,101078.96
2022-10-28T00:21:43.660Z,101076.95
2022-10-28T00:26:46.467Z,101071.50
2022-10-28T00:31:49.367Z,101064.44
2022-10-28T00:36:52.271Z,101063.93
2022-10-28T00:41:58.041Z,101061.63
2022-10-28T00:47:01.187Z,101060.51
2022-10-28T00:52:13.785Z,101053.09
2022-10-28T00:57:21.775Z,101047.24
2022-10-28T01:02:24.999Z,101047.75
2022-10-28T01:07:28.416Z,101049.95
2022-10-28T01:12:56.193Z,101042.00
2022-10-28T01:18:14.487Z,101037.04
2022-10-28T01:23:26.202Z,101034.58
2022-10-28T01:28:59.311Z,101030.63
2022-10-28T01:34:48.195Z,101029.36
2022-10-28T01:40:01.586Z,101025.51
2022-10-28T01:45:19.266Z,101021.65
2022-10-28T01:50:32.182Z,101011.83
2022-10-28T01:55:39.547Z,101009.59
2022-10-28T02:00:44.758Z,101004.70
2022-10-28T02:05:50.268Z,101008.37
2022-10-28T02:11:12.115Z,101009.58
2022-10-28T02:16:33.760Z,101007.52
2022-10-28T02:21:44.759Z,101005.53
2022-10-28T02:26:55.132Z,100995.67
2022-10-28T02:32:09.198Z,100990.72
2022-10-28T02:37:17.431Z,100988.14
2022-10-28T02:42:29.548Z,100991.27
2022-10-28T02:47:37.980Z,100991.75
2022-10-28T02:52:45.495Z,100988.02
2022-10-28T02:57:49.563Z,100983.73
2022-10-28T03:02:53.081Z,100984.51
2022-10-28T03:07:56.063Z,100982.22
2022-10-28T03:12:58.964Z,100978.89
2022-10-28T03:18:01.859Z,100973.05
2022-10-28T03:23:04.663Z,100972.50
2022-10-28T03:28:07.570Z,100975.78
2022-10-28T03:33:10.367Z,100977.48
2022-10-28T03:38:13.281Z,100977.55
2022-10-28T03:43:16.922Z,100972.50
2022-10-28T03:48:20.007Z,100965.17
2022-10-28T03:53:27.494Z,100964.30
2022-10-28T03:58:31.990Z,100959.06
2022-10-28T04:03:34.757Z,100967.95
2022-10-28T04:08:37.919Z,100968.45
2022-10-28T04:13:40.754Z,100956.25
2022-10-28T04:18:43.672Z,100951.98
2022-10-28T04:23:46.474Z,100948.01
2022-10-28T04:28:49.279Z,100939.54
2022-10-28T04:33:52.181Z,100930.95
2022-10-28T04:38:55.188Z,100927.38
2022-10-28T04:43:58.091Z,100927.99
2022-10-28T04:49:00.995Z,100918.52
2022-10-28T04:54:04.453Z,100913.73
2022-10-28T04:59:08.078Z,100907.41
2022-10-28T05:04:10.937Z,100908.12
2022-10-28T05:09:13.999Z,100906.35
2022-10-28T05:14:16.850Z,100903.17
2022-10-28T05:19:19.651Z,100899.09
2022-10-28T05:24:22.460Z,100892.60
2022-10-28T05:29:26.950Z,100890.66
2022-10-28T05:34:32.666Z,100886.88
2022-10-28T05:39:35.465Z,100890.62
2022-10-28T05:44:38.373Z,100887.42
2022-10-28T05:49:41.173Z,100879.76
2022-10-28T05:54:44.075Z,100872.56
2022-10-28T05:59:46.877Z,100867.44
2022-10-28T06:04:49.784Z,100863.23
2022-10-28T06:09:53.201Z,100862.27
2022-10-28T06:14:54.880Z,100859.51
2022-10-28T06:19:57.793Z,100854.57
2022-10-28T06:25:00.602Z,100855.83
2022-10-28T06:30:06.630Z,100853.42
2022-10-28T06:35:09.483Z,100858.61
2022-10-28T06:40:12.499Z,100865.41
2022-10-28T06:45:15.408Z,100869.88
2022-10-28T06:50:19.720Z,100858.94
2022-10-28T06:55:22.629Z,100857.98
2022-10-28T07:00:27.099Z,100865.02
2022-10-28T07:05:32.541Z,100867.22
2022-10-28T07:10:35.448Z,100863.73
2022-10-28T07:15:38.264Z,100862.79
2022-10-28T07:20:41.063Z,100864.38
2022-10-28T07:25:43.916Z,100863.63
2022-10-28T07:30:46.875Z,100861.10
2022-10-28T07:35:49.686Z,100856.67
2022-10-28T07:40:52.484Z,100859.64
2022-10-28T07:45:58.547Z,100861.20
2022-10-28T07:51:03.313Z,100866.16
2022-10-28T07:56:13.828Z,100866.41
2022-10-28T08:01:19.291Z,100860.13
2022-10-28T08:06:22.365Z,100852.50
2022-10-28T08:11:25.446Z,100850.65
2022-10-28T08:16:29.263Z,100840.66
2022-10-28T08:21:32.709Z,100844.52
2022-10-28T08:26:35.577Z,100836.41
2022-10-28T08:31:39.496Z,100837.23
2022-10-28T08:36:43.105Z,100839.91
2022-10-28T08:42:23.203Z,100839.69
2022-10-28T08:47:38.108Z,100840.48
2022-10-28T08:52:40.893Z,100836.85
2022-10-28T08:57:55.583Z,100835.21
2022-10-28T09:03:07.388Z,100827.34
2022-10-28T09:08:23.911Z,100821.50
2022-10-28T09:13:46.476Z,100821.67
2022-10-28T09:18:57.843Z,100819.70
2022-10-28T09:24:12.257Z,100810.81
2022-10-28T09:29:51.922Z,100809.63
2022-10-28T09:35:10.391Z,100813.65
2022-10-28T09:40:25.916Z,100808.35
2022-10-28T09:45:32.482Z,100803.55
2022-10-28T09:50:35.297Z,100803.98
2022-10-28T09:55:38.906Z,100790.59
2022-10-28T10:00:42.221Z,100783.30
2022-10-28T10:05:49.942Z,100773.91
2022-10-28T10:10:57.250Z,100772.98
2022-10-28T10:16:11.926Z,100770.67
2022-10-28T10:21:50.367Z,100768.05
2022-10-28T10:26:54.598Z,100755.50
2022-10-28T10:32:18.751Z,100742.59
2022-10-28T10:37:23.778Z,100747.03
2022-10-28T10:42:28.245Z,100741.04
2022-10-28T10:47:31.206Z,100736.85
2022-10-28T10:52:55.881Z,100727.33
2022-10-28T10:58:21.662Z,100731.09
2022-10-28T11:03:29.811Z,100726.40
2022-10-28T11:08:44.441Z,100718.34
2022-10-28T11:13:48.715Z,100703.77
2022-10-28T11:18:53.350Z,100702.54
2022-10-28T11:24:17.041Z,100688.45
2022-10-28T11:29:20.050Z,100681.45
2022-10-28T11:35:02.924Z,100678.02
2022-10-28T11:40:54.641Z,100663.91
2022-10-28T11:46:06.861Z,100664.54
2022-10-28T11:51:28.628Z,100672.59
2022-10-28T11:56:39.945Z,100680.61
2022-10-28T12:02:04.234Z,100683.48
2022-10-28T12:07:10.309Z,100681.45
2022-10-28T12:12:23.035Z,100681.07
2022-10-28T12:17:30.235Z,100670.17
2022-10-28T12:22:40.413Z,100659.30
2022-10-28T12:27:48.296Z,100641.98
2022-10-28T12:33:00.247Z,100636.70
2022-10-28T12:38:39.915Z,100645.23
2022-10-28T12:43:47.635Z,100643.70
2022-10-28T12:49:42.047Z,100638.17
2022-10-28T12:54:58.953Z,100651.87
2022-10-28T13:00:16.122Z,100654.06
2022-10-28T13:05:40.327Z,100642.95
2022-10-28T13:10:51.137Z,100643.60
2022-10-28T13:16:27.194Z,100634.07
2022-10-28T13:21:46.072Z,100614.66
2022-10-28T13:26:50.104Z,100602.48
2022-10-28T13:31:54.111Z,100586.23
2022-10-28T13:37:22.634Z,100581.85
2022-10-28T13:42:25.442Z,100575.83
2022-10-28T13:47:38.084Z,100580.17
2022-10-28T13:52:45.953Z,100565.26
2022-10-28T13:57:52.138Z,100567.77
2022-10-28T14:02:57.192Z,100566.92
2022-10-28T14:08:25.117Z,100572.70
2022-10-28T14:13:29.557Z,100566.82
2022-10-28T14:19:23.359Z,100554.73
2022-10-28T14:24:40.956Z,100548.15
2022-10-28T14:30:10.574Z,100540.04
2022-10-28T14:35:13.438Z,100544.84
2022-10-28T14:40:45.970Z,100537.19
2022-10-28T14:46:20.790Z,100533.95
2022-10-28T14:51:44.072Z,100526.02
2022-10-28T14:56:48.001Z,100522.27
2022-10-28T15:02:14.321Z,100514.88
2022-10-28T15:07:21.123Z,100520.60
2022-10-28T15:12:29.993Z,100510.88
2022-10-28T15:17:42.631Z,100515.25
2022-10-28T15:22:46.558Z,100531.34
2022-10-28T15:28:11.271Z,100540.48
2022-10-28T15:33:37.932Z,100533.27
2022-10-28T15:38:43.191Z,100542.27
2022-10-28T15:43:55.038Z,100547.23
2022-10-28T15:49:01.086Z,100550.45
2022-10-28T15:54:19.659Z,100558.98
2022-10-28T15:59:40.384Z,100570.06
2022-10-28T16:04:45.009Z,100566.62
2022-10-28T16:09:50.345Z,100566.55
2022-10-28T16:15:16.430Z,100558.40
2022-10-28T16:20:27.637Z,100537.03
2022-10-28T16:25:48.427Z,100532.59
2022-10-28T16:30:56.584Z,100528.77
2022-10-28T16:36:01.125Z,100529.23
2022-10-28T16:41:06.179Z,100526.83
2022-10-28T16:46:11.129Z,100518.54
2022-10-28T16:51:18.193Z,100497.69
2022-10-28T16:56:21.036Z,100504.70
2022-10-28T17:01:41.619Z,100499.02
2022-10-28T17:06:44.558Z,100503.17
2022-10-28T17:11:47.359Z,100509.58
2022-10-28T17:16:50.168Z,100497.04
2022-10-28T17:22:10.883Z,100498.42
2022-10-28T17:27:14.096Z,100497.52
2022-10-28T17:32:17.208Z,100504.66
2022-10-28T17:37:20.010Z,100513.39
2022-10-28T17:42:22.913Z,100508.83
2022-10-28T17:47:25.714Z,100504.92
2022-10-28T17:52:30.906Z,100499.49
2022-10-28T17:57:35.826Z,100504.04
2022-10-28T18:02:57.122Z,100500.44
2022-10-28T18:07:59.965Z,100501.33
2022-10-28T18:13:03.174Z,100490.05
2022-10-28T18:18:05.974Z,100481.70
2022-10-28T18:23:08.776Z,100470.52
2022-10-28T18:28:11.579Z,100462.08
2022-10-28T18:33:14.380Z,100450.59
2022-10-28T18:38:34.801Z,100455.98
2022-10-28T18:43:37.603Z,100465.39
2022-10-28T18:48:41.083Z,100462.13
2022-10-28T18:53:46.889Z,100454.23
2022-10-28T18:58:51.843Z,100450.62
2022-10-28T19:03:57.100Z,100449.91
2022-10-28T19:09:02.467Z,100447.79
2022-10-28T19:14:07.040Z,100440.92
2022-10-28T19:19:27.630Z,100434.65
2022-10-28T19:24:30.530Z,100433.11
2022-10-28T19:29:33.457Z,100434.21
2022-10-28T19:34:36.441Z,100420.73
2022-10-28T19:39:39.241Z,100410.58
2022-10-28T19:44:41.978Z,100406.31
2022-10-28T19:49:44.856Z,100403.55
2022-10-28T19:54:47.956Z,100406.20
2022-10-28T20:00:09.924Z,100410.36
2022-10-28T20:05:30.426Z,100407.84
2022-10-28T20:10:33.434Z,100405.44
2022-10-28T20:15:36.540Z,100399.89
2022-10-28T20:20:39.341Z,100398.69
2022-10-28T20:26:00.373Z,100393.95
2022-10-28T20:31:23.859Z,100396.06
2022-10-28T20:36:27.995Z,100392.18
2022-10-28T20:41:49.736Z,100391.11
2022-10-28T20:46:52.566Z,100383.55
2022-10-28T20:51:55.444Z,100381.65
2022-10-28T20:56:58.244Z,100383.70
2022-10-28T21:02:01.163Z,100382.44
2022-10-28T21:07:04.360Z,100378.15
2022-10-28T21:12:26.107Z,100377.09
2022-10-28T21:17:28.908Z,100374.67
2022-10-28T21:22:31.711Z,100368.43
2022-10-28T21:27:34.513Z,100365.20
2022-10-28T21:32:37.416Z,100363.23
2022-10-28T21:37:40.223Z,100354.73
2022-10-28T21:42:48.755Z,100348.16
2022-10-28T21:47:55.823Z,100353.77
2022-10-28T21:53:04.137Z,100351.14
2022-10-28T21:58:07.195Z,100348.52
2022-10-28T22:03:27.609Z,100343.77
2022-10-28T22:08:30.515Z,100346.90
2022-10-28T22:13:34.624Z,100339.08
2022-10-28T22:18:38.131Z,100332.98
2022-10-28T22:23:58.582Z,100334.98
2022-10-28T22:29:01.588Z,100335.00
2022-10-28T22:34:05.578Z,100329.91
2022-10-28T22:39:26.035Z,100327.39
2022-10-28T22:44:28.938Z,100319.63
2022-10-28T22:49:31.740Z,100316.44
2022-10-28T22:54:52.360Z,100316.01
2022-10-28T23:00:13.809Z,100312.48
2022-10-28T23:05:16.703Z,100312.40
2022-10-28T23:10:20.106Z,100308.46
2022-10-28T23:15:23.829Z,100304.96
2022-10-28T23:20:26.650Z,100300.16
2022-10-28T23:25:29.451Z,100295.58
2022-10-28T23:30:32.908Z,100292.96
2022-10-28T23:35:35.785Z,100292.39
2022-10-28T23:41:04.477Z,100293.40
2022-10-28T23:46:25.304Z,100295.98
2022-10-28T23:51:28.102Z,100294.48
2022-10-28T23:56:48.828Z,100294.52
